RAM267 GMMN-FOOL
Flight info
| Callsign | RAM267 |
|---|---|
| Flight time | 5h 14m |
| Altitude | 35000 |
| Route | FOBAC UR722 MABAP DCT BULIS UR981 NY UT365 BOVDA UL684 ABC UW225 AKLIS UA604 DLA UG857 BTA BTA2B |
| Aircraft | B738/M-SDE2E3FGHIRWXY/LB1 |
Departure
| Time | 2026-04-24 21:51 |
|---|---|
| Airport | Mohammed V International Airport (GMMN) |
Arrival
| Time | 2026-04-25 03:05 |
|---|---|
| Airport | Libreville Leon M'ba International Airport (FOOL) |
| Time | Latitude | Longitude | Altitude | Speed | Heading |
|---|---|---|---|---|---|
| 2026-04-24 20:52 | 33.37344 | -7.58263 | 652 ft | 0 kts | 73° |
| 2026-04-24 21:36 | 33.37338 | -7.58287 | 654 ft | 4 kts | 73° |
| 2026-04-24 21:36 | 33.37331 | -7.58317 | 653 ft | 4 kts | 80° |
| 2026-04-24 21:37 | 33.37330 | -7.58337 | 654 ft | 2 kts | 114° |
| 2026-04-24 21:37 | 33.37337 | -7.58347 | 653 ft | 2 kts | 153° |
| 2026-04-24 21:37 | 33.37347 | -7.58352 | 655 ft | 2 kts | 162° |
| 2026-04-24 21:37 | 33.37355 | -7.58355 | 652 ft | 0 kts | 163° |
| 2026-04-24 21:40 | 33.37342 | -7.58351 | 656 ft | 4 kts | 163° |
| 2026-04-24 21:41 | 33.37298 | -7.58335 | 652 ft | 9 kts | 163° |
| 2026-04-24 21:41 | 33.37225 | -7.58310 | 652 ft | 13 kts | 165° |
| 2026-04-24 21:41 | 33.37125 | -7.58279 | 652 ft | 16 kts | 165° |
| 2026-04-24 21:41 | 33.37010 | -7.58239 | 652 ft | 17 kts | 164° |
| 2026-04-24 21:42 | 33.36932 | -7.58295 | 652 ft | 15 kts | 253° |
| 2026-04-24 21:42 | 33.36901 | -7.58414 | 652 ft | 15 kts | 246° |
| 2026-04-24 21:42 | 33.36815 | -7.58451 | 652 ft | 14 kts | 170° |
| 2026-04-24 21:42 | 33.36722 | -7.58419 | 652 ft | 14 kts | 164° |
| 2026-04-24 21:43 | 33.36633 | -7.58388 | 654 ft | 13 kts | 163° |
| 2026-04-24 21:43 | 33.36548 | -7.58358 | 652 ft | 13 kts | 165° |
| 2026-04-24 21:43 | 33.36463 | -7.58331 | 652 ft | 13 kts | 165° |
| 2026-04-24 21:43 | 33.36361 | -7.58295 | 654 ft | 18 kts | 163° |
| 2026-04-24 21:44 | 33.36231 | -7.58250 | 654 ft | 21 kts | 163° |
| 2026-04-24 21:44 | 33.36081 | -7.58198 | 651 ft | 24 kts | 164° |
| 2026-04-24 21:44 | 33.35917 | -7.58145 | 651 ft | 24 kts | 164° |
| 2026-04-24 21:44 | 33.35763 | -7.58090 | 651 ft | 23 kts | 165° |
| 2026-04-24 21:45 | 33.35612 | -7.58040 | 654 ft | 22 kts | 163° |
| 2026-04-24 21:45 | 33.35467 | -7.57989 | 653 ft | 22 kts | 163° |
| 2026-04-24 21:45 | 33.35323 | -7.57946 | 652 ft | 21 kts | 181° |
| 2026-04-24 21:45 | 33.35248 | -7.58035 | 652 ft | 0 kts | 250° |
| 2026-04-24 21:46 | 33.35247 | -7.58039 | 652 ft | 1 kts | 251° |
| 2026-04-24 21:46 | 33.35238 | -7.58070 | 653 ft | 6 kts | 252° |
| 2026-04-24 21:47 | 33.35224 | -7.58130 | 655 ft | 9 kts | 254° |
| 2026-04-24 21:47 | 33.35212 | -7.58181 | 657 ft | 10 kts | 254° |
| 2026-04-24 21:47 | 33.35181 | -7.58304 | 657 ft | 12 kts | 252° |
| 2026-04-24 21:47 | 33.35158 | -7.58399 | 653 ft | 13 kts | 255° |
| 2026-04-24 21:48 | 33.35132 | -7.58506 | 653 ft | 14 kts | 253° |
| 2026-04-24 21:48 | 33.35122 | -7.58622 | 653 ft | 14 kts | 295° |
| 2026-04-24 21:48 | 33.35178 | -7.58671 | 653 ft | 0 kts | 340° |
| 2026-04-24 21:49 | 33.35188 | -7.58675 | 653 ft | 0 kts | 340° |
| 2026-04-24 21:50 | 33.35213 | -7.58686 | 652 ft | 23 kts | 343° |
| 2026-04-24 21:50 | 33.35576 | -7.58813 | 649 ft | 85 kts | 344° |
| 2026-04-24 21:50 | 33.36326 | -7.59070 | 653 ft | 137 kts | 344° |
| 2026-04-24 21:51 | 33.37347 | -7.59433 | 857 ft | 160 kts | 341° |
| 2026-04-24 21:51 | 33.38370 | -7.59810 | 1572 ft | 154 kts | 346° |
| 2026-04-24 21:51 | 33.39444 | -7.60165 | 2119 ft | 158 kts | 348° |
| 2026-04-24 21:51 | 33.40465 | -7.60750 | 2550 ft | 177 kts | 321° |
| 2026-04-24 21:52 | 33.41236 | -7.62042 | 2812 ft | 206 kts | 294° |
| 2026-04-24 21:52 | 33.41426 | -7.63829 | 3006 ft | 231 kts | 263° |
| 2026-04-24 21:52 | 33.40927 | -7.65724 | 3342 ft | 245 kts | 249° |
| 2026-04-24 21:52 | 33.40246 | -7.67607 | 3887 ft | 247 kts | 248° |
| 2026-04-24 21:53 | 33.39558 | -7.69507 | 4536 ft | 248 kts | 247° |
| 2026-04-24 21:53 | 33.38899 | -7.71382 | 5306 ft | 247 kts | 247° |
| 2026-04-24 21:53 | 33.38244 | -7.73301 | 5947 ft | 252 kts | 248° |
| 2026-04-24 21:53 | 33.37587 | -7.75279 | 6587 ft | 257 kts | 249° |
| 2026-04-24 21:54 | 33.36938 | -7.77261 | 7204 ft | 260 kts | 250° |
| 2026-04-24 21:54 | 33.36279 | -7.79291 | 7843 ft | 263 kts | 250° |
| 2026-04-24 21:54 | 33.35835 | -7.80657 | 8287 ft | 264 kts | 250° |
| 2026-04-24 21:54 | 33.35167 | -7.82710 | 8937 ft | 267 kts | 248° |
| 2026-04-24 21:55 | 33.33626 | -7.85082 | 9482 ft | 287 kts | 221° |
| 2026-04-24 21:55 | 33.32571 | -7.86137 | 9748 ft | 296 kts | 220° |
| 2026-04-24 21:55 | 33.30959 | -7.87708 | 10304 ft | 302 kts | 220° |
| 2026-04-24 21:55 | 33.29289 | -7.89331 | 10675 ft | 316 kts | 220° |
| 2026-04-24 21:56 | 33.27583 | -7.91001 | 11116 ft | 325 kts | 220° |
| 2026-04-24 21:56 | 33.25808 | -7.92749 | 11568 ft | 335 kts | 220° |
| 2026-04-24 21:56 | 33.23992 | -7.94544 | 12122 ft | 341 kts | 221° |
| 2026-04-24 21:56 | 33.22158 | -7.96363 | 12674 ft | 346 kts | 221° |
| 2026-04-24 21:57 | 33.20282 | -7.98225 | 13256 ft | 351 kts | 221° |
| 2026-04-24 21:57 | 33.18392 | -8.00101 | 13854 ft | 355 kts | 221° |
| 2026-04-24 21:57 | 33.16473 | -8.02005 | 14378 ft | 360 kts | 221° |
| 2026-04-24 21:57 | 33.14558 | -8.03878 | 14939 ft | 363 kts | 217° |
| 2026-04-24 21:58 | 33.12267 | -8.05214 | 15473 ft | 369 kts | 195° |
| 2026-04-24 21:58 | 33.09704 | -8.05606 | 16054 ft | 373 kts | 184° |
| 2026-04-24 21:58 | 33.07098 | -8.05747 | 16607 ft | 376 kts | 183° |
| 2026-04-24 21:58 | 33.04458 | -8.05860 | 17123 ft | 381 kts | 183° |
| 2026-04-24 21:59 | 33.01791 | -8.05987 | 17608 ft | 386 kts | 184° |
| 2026-04-24 21:59 | 32.99120 | -8.06137 | 18116 ft | 390 kts | 185° |
| 2026-04-24 21:59 | 32.96395 | -8.06305 | 18598 ft | 393 kts | 185° |
| 2026-04-24 21:59 | 32.93634 | -8.06482 | 19016 ft | 398 kts | 186° |
| 2026-04-24 22:00 | 32.90866 | -8.06788 | 19421 ft | 401 kts | 190° |
| 2026-04-24 22:00 | 32.88119 | -8.07244 | 19856 ft | 404 kts | 192° |
| 2026-04-24 22:00 | 32.85326 | -8.07749 | 20201 ft | 410 kts | 192° |
| 2026-04-24 22:00 | 32.82478 | -8.08256 | 20584 ft | 414 kts | 192° |
| 2026-04-24 22:01 | 32.79624 | -8.08741 | 21100 ft | 415 kts | 192° |
| 2026-04-24 22:01 | 32.76758 | -8.09213 | 21576 ft | 417 kts | 192° |
| 2026-04-24 22:01 | 32.73868 | -8.09683 | 22026 ft | 419 kts | 193° |
| 2026-04-24 22:01 | 32.70970 | -8.10154 | 22455 ft | 422 kts | 193° |
| 2026-04-24 22:02 | 32.68050 | -8.10631 | 22884 ft | 424 kts | 193° |
| 2026-04-24 22:02 | 32.65116 | -8.11112 | 23301 ft | 427 kts | 193° |
| 2026-04-24 22:02 | 32.62156 | -8.11598 | 23701 ft | 430 kts | 193° |
| 2026-04-24 22:02 | 32.59182 | -8.12086 | 24057 ft | 432 kts | 193° |
| 2026-04-24 22:03 | 32.56246 | -8.12566 | 24433 ft | 433 kts | 194° |
| 2026-04-24 22:03 | 32.53219 | -8.13060 | 24862 ft | 432 kts | 194° |
| 2026-04-24 22:03 | 32.50242 | -8.13545 | 25208 ft | 434 kts | 194° |
| 2026-04-24 22:03 | 32.47235 | -8.14036 | 25501 ft | 436 kts | 194° |
| 2026-04-24 22:04 | 32.44263 | -8.14522 | 25851 ft | 438 kts | 194° |
| 2026-04-24 22:04 | 32.41232 | -8.15017 | 26128 ft | 441 kts | 194° |
| 2026-04-24 22:04 | 32.38189 | -8.15513 | 26544 ft | 441 kts | 194° |
| 2026-04-24 22:04 | 32.35141 | -8.16008 | 26864 ft | 443 kts | 194° |
| 2026-04-24 22:05 | 32.32085 | -8.16506 | 27180 ft | 444 kts | 194° |
| 2026-04-24 22:05 | 32.29017 | -8.17005 | 27495 ft | 446 kts | 194° |
| 2026-04-24 22:05 | 32.25938 | -8.17505 | 27879 ft | 445 kts | 194° |
| 2026-04-24 22:05 | 32.22866 | -8.18002 | 28210 ft | 446 kts | 194° |
| 2026-04-24 22:06 | 32.19820 | -8.18497 | 28506 ft | 447 kts | 194° |
| 2026-04-24 22:06 | 32.16721 | -8.19000 | 28785 ft | 449 kts | 194° |
| 2026-04-24 22:06 | 32.13615 | -8.19505 | 29015 ft | 452 kts | 194° |
| 2026-04-24 22:06 | 32.10485 | -8.20039 | 29298 ft | 452 kts | 195° |
| 2026-04-24 22:07 | 32.07371 | -8.20682 | 29611 ft | 451 kts | 197° |
| 2026-04-24 22:07 | 32.04318 | -8.21374 | 29868 ft | 453 kts | 197° |
| 2026-04-24 22:07 | 32.01209 | -8.22099 | 30068 ft | 455 kts | 197° |
| 2026-04-24 22:07 | 31.98092 | -8.22824 | 30285 ft | 457 kts | 197° |
| 2026-04-24 22:08 | 31.94962 | -8.23543 | 30486 ft | 459 kts | 197° |
| 2026-04-24 22:08 | 31.91812 | -8.24255 | 30708 ft | 459 kts | 197° |
| 2026-04-24 22:08 | 31.89554 | -8.24761 | 30877 ft | 460 kts | 197° |
| 2026-04-24 22:08 | 31.86388 | -8.25464 | 31069 ft | 461 kts | 197° |
| 2026-04-24 22:09 | 31.83260 | -8.26156 | 31267 ft | 462 kts | 196° |
| 2026-04-24 22:09 | 31.80078 | -8.26857 | 31450 ft | 464 kts | 196° |
| 2026-04-24 22:09 | 31.76900 | -8.27556 | 31642 ft | 465 kts | 196° |
| 2026-04-24 22:09 | 31.73708 | -8.28258 | 31846 ft | 465 kts | 196° |
| 2026-04-24 22:10 | 31.70524 | -8.28958 | 32021 ft | 466 kts | 196° |
| 2026-04-24 22:10 | 31.67372 | -8.29651 | 32195 ft | 467 kts | 196° |
| 2026-04-24 22:10 | 31.64169 | -8.30355 | 32399 ft | 467 kts | 196° |
| 2026-04-24 22:10 | 31.60966 | -8.31058 | 32650 ft | 466 kts | 196° |
| 2026-04-24 22:11 | 31.57786 | -8.31755 | 32919 ft | 465 kts | 196° |
| 2026-04-24 22:11 | 31.54598 | -8.32453 | 33144 ft | 464 kts | 196° |
| 2026-04-24 22:11 | 31.51424 | -8.33149 | 33364 ft | 464 kts | 197° |
| 2026-04-24 22:11 | 31.48291 | -8.33835 | 33584 ft | 463 kts | 197° |
| 2026-04-24 22:12 | 31.45114 | -8.34531 | 33801 ft | 463 kts | 197° |
| 2026-04-24 22:12 | 31.41955 | -8.35222 | 34005 ft | 462 kts | 197° |
| 2026-04-24 22:12 | 31.38795 | -8.35913 | 34212 ft | 461 kts | 197° |
| 2026-04-24 22:12 | 31.35641 | -8.36602 | 34417 ft | 460 kts | 197° |
| 2026-04-24 22:13 | 31.32497 | -8.37288 | 34594 ft | 460 kts | 197° |
| 2026-04-24 22:13 | 31.29349 | -8.37975 | 34747 ft | 460 kts | 197° |
| 2026-04-24 22:13 | 31.26208 | -8.38660 | 34936 ft | 459 kts | 197° |
| 2026-04-24 22:13 | 31.23072 | -8.39344 | 35068 ft | 459 kts | 197° |
| 2026-04-24 22:14 | 31.19922 | -8.40031 | 35051 ft | 460 kts | 197° |
| 2026-04-24 22:14 | 31.13631 | -8.41401 | 35058 ft | 459 kts | 197° |
| 2026-04-24 22:15 | 31.07371 | -8.42760 | 35058 ft | 457 kts | 197° |
| 2026-04-24 22:15 | 31.01148 | -8.44108 | 35044 ft | 456 kts | 197° |
| 2026-04-24 22:16 | 30.94911 | -8.45459 | 35026 ft | 454 kts | 197° |
| 2026-04-24 22:16 | 30.88747 | -8.46792 | 35027 ft | 452 kts | 197° |
| 2026-04-24 22:17 | 30.82560 | -8.48130 | 35009 ft | 451 kts | 197° |
| 2026-04-24 22:17 | 30.76779 | -8.49375 | 35008 ft | 449 kts | 197° |
| 2026-04-24 22:18 | 30.70660 | -8.50695 | 35005 ft | 449 kts | 197° |
| 2026-04-24 22:18 | 30.64498 | -8.52025 | 34976 ft | 451 kts | 197° |
| 2026-04-24 22:19 | 30.58341 | -8.53350 | 34976 ft | 453 kts | 197° |
| 2026-04-24 22:19 | 30.52115 | -8.54687 | 34972 ft | 455 kts | 197° |
| 2026-04-24 22:20 | 30.45904 | -8.56019 | 34969 ft | 457 kts | 197° |
| 2026-04-24 22:20 | 30.39627 | -8.57363 | 34964 ft | 458 kts | 197° |
| 2026-04-24 22:21 | 30.33334 | -8.58707 | 34965 ft | 459 kts | 197° |
| 2026-04-24 22:21 | 30.27041 | -8.60051 | 34957 ft | 459 kts | 197° |
| 2026-04-24 22:22 | 30.20806 | -8.61380 | 34962 ft | 457 kts | 197° |
| 2026-04-24 22:22 | 30.14546 | -8.62713 | 34962 ft | 455 kts | 197° |
| 2026-04-24 22:23 | 30.08355 | -8.64030 | 34954 ft | 454 kts | 197° |
| 2026-04-24 22:23 | 30.02154 | -8.65347 | 34962 ft | 451 kts | 197° |
| 2026-04-24 22:24 | 29.95963 | -8.66661 | 34958 ft | 450 kts | 197° |
| 2026-04-24 22:24 | 29.89844 | -8.67958 | 34947 ft | 449 kts | 197° |
| 2026-04-24 22:25 | 29.83701 | -8.69259 | 34946 ft | 448 kts | 197° |
| 2026-04-24 22:25 | 29.77562 | -8.70557 | 34946 ft | 447 kts | 197° |
| 2026-04-24 22:26 | 29.71476 | -8.71842 | 34943 ft | 446 kts | 197° |
| 2026-04-24 22:26 | 29.65367 | -8.73131 | 34935 ft | 446 kts | 197° |
| 2026-04-24 22:27 | 29.59227 | -8.74426 | 34936 ft | 447 kts | 197° |
| 2026-04-24 22:27 | 29.53131 | -8.75708 | 34923 ft | 448 kts | 197° |
| 2026-04-24 22:28 | 29.46985 | -8.77000 | 34927 ft | 448 kts | 197° |
| 2026-04-24 22:28 | 29.40877 | -8.78281 | 34924 ft | 448 kts | 197° |
| 2026-04-24 22:29 | 29.31650 | -8.80215 | 34912 ft | 449 kts | 197° |
| 2026-04-24 22:29 | 29.25526 | -8.81496 | 34904 ft | 449 kts | 197° |
| 2026-04-24 22:30 | 29.19366 | -8.82783 | 34901 ft | 449 kts | 197° |
| 2026-04-24 22:30 | 29.13206 | -8.84069 | 34898 ft | 449 kts | 197° |
| 2026-04-24 22:31 | 29.07050 | -8.85352 | 34895 ft | 449 kts | 197° |
| 2026-04-24 22:31 | 29.00921 | -8.86628 | 34883 ft | 449 kts | 197° |
| 2026-04-24 22:32 | 28.94762 | -8.87909 | 34885 ft | 449 kts | 197° |
| 2026-04-24 22:32 | 28.88638 | -8.89181 | 34886 ft | 449 kts | 197° |
| 2026-04-24 22:33 | 28.82481 | -8.90458 | 34886 ft | 449 kts | 197° |
| 2026-04-24 22:33 | 28.76331 | -8.91732 | 34886 ft | 449 kts | 197° |
| 2026-04-24 22:34 | 28.70219 | -8.92997 | 34890 ft | 448 kts | 197° |
| 2026-04-24 22:34 | 28.64069 | -8.94269 | 34885 ft | 448 kts | 197° |
| 2026-04-24 22:35 | 28.57925 | -8.95537 | 34894 ft | 448 kts | 197° |
| 2026-04-24 22:35 | 28.51832 | -8.96794 | 34910 ft | 448 kts | 197° |
| 2026-04-24 22:36 | 28.45690 | -8.98059 | 34893 ft | 448 kts | 197° |
| 2026-04-24 22:36 | 28.39541 | -8.99324 | 34907 ft | 447 kts | 197° |
| 2026-04-24 22:37 | 28.33456 | -9.00574 | 34913 ft | 447 kts | 197° |
| 2026-04-24 22:37 | 28.27322 | -9.01834 | 34920 ft | 447 kts | 197° |
| 2026-04-24 22:38 | 28.21214 | -9.03086 | 34914 ft | 447 kts | 197° |
| 2026-04-24 22:38 | 28.15071 | -9.04344 | 34928 ft | 448 kts | 197° |
| 2026-04-24 22:39 | 28.08944 | -9.05597 | 34929 ft | 448 kts | 197° |
| 2026-04-24 22:39 | 28.02835 | -9.06845 | 34935 ft | 448 kts | 197° |
| 2026-04-24 22:40 | 27.96693 | -9.08099 | 34935 ft | 448 kts | 197° |
| 2026-04-24 22:40 | 27.90548 | -9.09351 | 34938 ft | 448 kts | 197° |
| 2026-04-24 22:41 | 27.85440 | -9.10392 | 34937 ft | 448 kts | 197° |
| 2026-04-24 22:41 | 27.79306 | -9.11640 | 34937 ft | 448 kts | 197° |
| 2026-04-24 22:42 | 27.73199 | -9.12882 | 34938 ft | 448 kts | 194° |
| 2026-04-24 22:42 | 27.66938 | -9.13101 | 34956 ft | 462 kts | 169° |
| 2026-04-24 22:43 | 27.63918 | -9.11802 | 34930 ft | 471 kts | 152° |
| 2026-04-24 22:43 | 27.61237 | -9.09611 | 34979 ft | 475 kts | 144° |
| 2026-04-24 22:43 | 27.56099 | -9.04908 | 34946 ft | 479 kts | 144° |
| 2026-04-24 22:44 | 27.50892 | -9.00167 | 34934 ft | 482 kts | 144° |
| 2026-04-24 22:44 | 27.45618 | -8.95447 | 34934 ft | 484 kts | 144° |
| 2026-04-24 22:45 | 27.40316 | -8.90745 | 34935 ft | 486 kts | 145° |
| 2026-04-24 22:45 | 27.34996 | -8.86039 | 34929 ft | 486 kts | 145° |
| 2026-04-24 22:46 | 27.29709 | -8.81364 | 34928 ft | 485 kts | 145° |
| 2026-04-24 22:46 | 27.24390 | -8.76665 | 34927 ft | 484 kts | 145° |
| 2026-04-24 22:47 | 27.19128 | -8.72022 | 34924 ft | 482 kts | 145° |
| 2026-04-24 22:47 | 27.13846 | -8.67367 | 34919 ft | 480 kts | 145° |
| 2026-04-24 22:48 | 27.08607 | -8.62755 | 34919 ft | 479 kts | 145° |
| 2026-04-24 22:48 | 27.03347 | -8.58131 | 34915 ft | 478 kts | 145° |
| 2026-04-24 22:49 | 26.98143 | -8.53562 | 34920 ft | 477 kts | 145° |
| 2026-04-24 22:49 | 26.92904 | -8.48968 | 34916 ft | 477 kts | 145° |
| 2026-04-24 22:50 | 26.87695 | -8.44406 | 34918 ft | 477 kts | 145° |
| 2026-04-24 22:50 | 26.82455 | -8.39822 | 34916 ft | 478 kts | 145° |
| 2026-04-24 22:51 | 26.77193 | -8.35224 | 34913 ft | 479 kts | 145° |
| 2026-04-24 22:51 | 26.71962 | -8.30659 | 34912 ft | 480 kts | 145° |
| 2026-04-24 22:52 | 26.66673 | -8.26048 | 34906 ft | 481 kts | 145° |
| 2026-04-24 22:52 | 26.61374 | -8.21435 | 34904 ft | 482 kts | 145° |
| 2026-04-24 22:53 | 26.56111 | -8.16858 | 34901 ft | 483 kts | 145° |
| 2026-04-24 22:53 | 26.50794 | -8.12240 | 34899 ft | 483 kts | 145° |
| 2026-04-24 22:54 | 26.45504 | -8.07650 | 34896 ft | 483 kts | 145° |
| 2026-04-24 22:54 | 26.40166 | -8.03025 | 34893 ft | 483 kts | 145° |
| 2026-04-24 22:55 | 26.34879 | -7.98449 | 34892 ft | 483 kts | 146° |
| 2026-04-24 22:55 | 26.29561 | -7.93852 | 34886 ft | 483 kts | 146° |
| 2026-04-24 22:56 | 26.24245 | -7.89262 | 34897 ft | 483 kts | 146° |
| 2026-04-24 22:56 | 26.18928 | -7.84677 | 34882 ft | 483 kts | 146° |
| 2026-04-24 22:57 | 26.13643 | -7.80125 | 34886 ft | 483 kts | 146° |
| 2026-04-24 22:57 | 26.08321 | -7.75546 | 34877 ft | 483 kts | 146° |
| 2026-04-24 22:58 | 26.02997 | -7.70972 | 34886 ft | 482 kts | 146° |
| 2026-04-24 22:58 | 25.97711 | -7.66435 | 34886 ft | 482 kts | 146° |
| 2026-04-24 22:59 | 25.92383 | -7.61866 | 34878 ft | 483 kts | 146° |
| 2026-04-24 23:00 | 25.84422 | -7.55051 | 34882 ft | 483 kts | 146° |
| 2026-04-24 23:00 | 25.79084 | -7.50488 | 34882 ft | 483 kts | 146° |
| 2026-04-24 23:01 | 25.73765 | -7.45946 | 34878 ft | 484 kts | 146° |
| 2026-04-24 23:01 | 25.68422 | -7.41388 | 34887 ft | 484 kts | 146° |
| 2026-04-24 23:02 | 25.63056 | -7.36817 | 34881 ft | 485 kts | 146° |
| 2026-04-24 23:02 | 25.57725 | -7.32279 | 34878 ft | 485 kts | 146° |
| 2026-04-24 23:03 | 25.52351 | -7.27712 | 34878 ft | 486 kts | 146° |
| 2026-04-24 23:03 | 25.46991 | -7.23161 | 34879 ft | 486 kts | 146° |
| 2026-04-24 23:04 | 25.41612 | -7.18595 | 34878 ft | 487 kts | 146° |
| 2026-04-24 23:04 | 25.36268 | -7.14064 | 34879 ft | 487 kts | 146° |
| 2026-04-24 23:05 | 25.30877 | -7.09499 | 34876 ft | 487 kts | 146° |
| 2026-04-24 23:05 | 25.25489 | -7.04940 | 34876 ft | 487 kts | 146° |
| 2026-04-24 23:06 | 25.20122 | -7.00405 | 34873 ft | 487 kts | 146° |
| 2026-04-24 23:06 | 25.14725 | -6.95850 | 34873 ft | 487 kts | 146° |
| 2026-04-24 23:07 | 25.09352 | -6.91321 | 34872 ft | 487 kts | 147° |
| 2026-04-24 23:07 | 25.03960 | -6.86780 | 34871 ft | 487 kts | 147° |
| 2026-04-24 23:08 | 24.98595 | -6.82268 | 34870 ft | 487 kts | 147° |
| 2026-04-24 23:08 | 24.93187 | -6.77724 | 34869 ft | 487 kts | 147° |
| 2026-04-24 23:09 | 24.87775 | -6.73182 | 34869 ft | 488 kts | 147° |
| 2026-04-24 23:09 | 24.82404 | -6.68680 | 34868 ft | 488 kts | 147° |
| 2026-04-24 23:10 | 24.76996 | -6.64151 | 34860 ft | 488 kts | 147° |
| 2026-04-24 23:10 | 24.71575 | -6.59617 | 34864 ft | 489 kts | 147° |
| 2026-04-24 23:11 | 24.66186 | -6.55115 | 34858 ft | 489 kts | 147° |
| 2026-04-24 23:11 | 24.60760 | -6.50586 | 34854 ft | 490 kts | 147° |
| 2026-04-24 23:12 | 24.55318 | -6.46050 | 34855 ft | 490 kts | 147° |
| 2026-04-24 23:12 | 24.49904 | -6.41541 | 34853 ft | 491 kts | 147° |
| 2026-04-24 23:13 | 24.44451 | -6.37006 | 34850 ft | 491 kts | 147° |
| 2026-04-24 23:13 | 24.39029 | -6.32500 | 34851 ft | 491 kts | 147° |
| 2026-04-24 23:14 | 24.33562 | -6.27963 | 34851 ft | 492 kts | 147° |
| 2026-04-24 23:14 | 24.28091 | -6.23427 | 34851 ft | 492 kts | 147° |
| 2026-04-24 23:15 | 24.22648 | -6.18917 | 34850 ft | 492 kts | 147° |
| 2026-04-24 23:15 | 24.17179 | -6.14393 | 34846 ft | 492 kts | 147° |
| 2026-04-24 23:16 | 24.11732 | -6.09900 | 34843 ft | 493 kts | 147° |
| 2026-04-24 23:16 | 24.06242 | -6.05376 | 34849 ft | 493 kts | 147° |
| 2026-04-24 23:17 | 24.00755 | -6.00857 | 34847 ft | 493 kts | 147° |
| 2026-04-24 23:17 | 23.95305 | -5.96372 | 34844 ft | 493 kts | 148° |
| 2026-04-24 23:18 | 23.89815 | -5.91859 | 34844 ft | 493 kts | 148° |
| 2026-04-24 23:18 | 23.84318 | -5.87346 | 34847 ft | 493 kts | 148° |
| 2026-04-24 23:19 | 23.78856 | -5.82866 | 34841 ft | 493 kts | 148° |
| 2026-04-24 23:19 | 23.73358 | -5.78361 | 34842 ft | 494 kts | 148° |
| 2026-04-24 23:20 | 23.67854 | -5.73857 | 34840 ft | 494 kts | 148° |
| 2026-04-24 23:20 | 23.62341 | -5.69350 | 34839 ft | 494 kts | 148° |
| 2026-04-24 23:21 | 23.56859 | -5.64873 | 34837 ft | 494 kts | 148° |
| 2026-04-24 23:21 | 23.51342 | -5.60373 | 34843 ft | 495 kts | 148° |
| 2026-04-24 23:22 | 23.45829 | -5.55879 | 34835 ft | 495 kts | 148° |
| 2026-04-24 23:22 | 23.40329 | -5.51402 | 34833 ft | 496 kts | 148° |
| 2026-04-24 23:23 | 23.34800 | -5.46906 | 34828 ft | 496 kts | 148° |
| 2026-04-24 23:23 | 23.29254 | -5.42401 | 34837 ft | 497 kts | 148° |
| 2026-04-24 23:24 | 23.23711 | -5.37904 | 34834 ft | 497 kts | 148° |
| 2026-04-24 23:24 | 23.18190 | -5.33428 | 34831 ft | 497 kts | 148° |
| 2026-04-24 23:25 | 23.12629 | -5.28925 | 34827 ft | 498 kts | 148° |
| 2026-04-24 23:25 | 23.07066 | -5.24425 | 34827 ft | 498 kts | 148° |
| 2026-04-24 23:26 | 23.01530 | -5.19953 | 34828 ft | 499 kts | 149° |
| 2026-04-24 23:26 | 22.95949 | -5.15448 | 34823 ft | 499 kts | 149° |
| 2026-04-24 23:27 | 22.90372 | -5.10951 | 34821 ft | 499 kts | 149° |
| 2026-04-24 23:27 | 22.84822 | -5.06480 | 34820 ft | 499 kts | 149° |
| 2026-04-24 23:28 | 22.79230 | -5.01981 | 34819 ft | 500 kts | 149° |
| 2026-04-24 23:28 | 22.73644 | -4.97490 | 34813 ft | 500 kts | 149° |
| 2026-04-24 23:29 | 22.68998 | -4.93760 | 34813 ft | 500 kts | 149° |
| 2026-04-24 23:29 | 22.62488 | -4.88538 | 34813 ft | 500 kts | 149° |
| 2026-04-24 23:30 | 22.57833 | -4.84807 | 34813 ft | 500 kts | 149° |
| 2026-04-24 23:30 | 22.52234 | -4.80325 | 34810 ft | 500 kts | 149° |
| 2026-04-24 23:31 | 22.46615 | -4.75830 | 34813 ft | 500 kts | 149° |
| 2026-04-24 23:31 | 22.41019 | -4.71359 | 34807 ft | 501 kts | 149° |
| 2026-04-24 23:32 | 22.35433 | -4.66901 | 34806 ft | 501 kts | 149° |
| 2026-04-24 23:32 | 22.29819 | -4.62425 | 34807 ft | 501 kts | 149° |
| 2026-04-24 23:33 | 22.24228 | -4.57972 | 34809 ft | 501 kts | 149° |
| 2026-04-24 23:33 | 22.18623 | -4.53512 | 34805 ft | 501 kts | 150° |
| 2026-04-24 23:34 | 22.12993 | -4.49037 | 34810 ft | 502 kts | 150° |
| 2026-04-24 23:34 | 22.07388 | -4.44586 | 34810 ft | 502 kts | 150° |
| 2026-04-24 23:35 | 22.01745 | -4.40109 | 34808 ft | 502 kts | 150° |
| 2026-04-24 23:35 | 21.96134 | -4.35662 | 34807 ft | 502 kts | 150° |
| 2026-04-24 23:36 | 21.90483 | -4.31188 | 34815 ft | 503 kts | 150° |
| 2026-04-24 23:36 | 21.84866 | -4.26746 | 34818 ft | 503 kts | 150° |
| 2026-04-24 23:37 | 21.79230 | -4.22292 | 34814 ft | 503 kts | 150° |
| 2026-04-24 23:37 | 21.70758 | -4.15606 | 34815 ft | 502 kts | 150° |
| 2026-04-24 23:38 | 21.65139 | -4.11178 | 34815 ft | 502 kts | 150° |
| 2026-04-24 23:38 | 21.59492 | -4.06731 | 34816 ft | 502 kts | 150° |
| 2026-04-24 23:39 | 21.53895 | -4.02328 | 34819 ft | 502 kts | 150° |
| 2026-04-24 23:39 | 21.48253 | -3.97894 | 34813 ft | 502 kts | 150° |
| 2026-04-24 23:40 | 21.42602 | -3.93457 | 34814 ft | 502 kts | 150° |
| 2026-04-24 23:40 | 21.36957 | -3.89028 | 34817 ft | 502 kts | 150° |
| 2026-04-24 23:41 | 21.31342 | -3.84629 | 34818 ft | 502 kts | 150° |
| 2026-04-24 23:41 | 21.25673 | -3.80196 | 34817 ft | 503 kts | 150° |
| 2026-04-24 23:42 | 21.20012 | -3.75771 | 34818 ft | 503 kts | 150° |
| 2026-04-24 23:42 | 21.14371 | -3.71365 | 34818 ft | 503 kts | 150° |
| 2026-04-24 23:43 | 21.08705 | -3.66944 | 34817 ft | 503 kts | 150° |
| 2026-04-24 23:43 | 21.03062 | -3.62543 | 34819 ft | 504 kts | 150° |
| 2026-04-24 23:44 | 20.97390 | -3.58126 | 34818 ft | 504 kts | 150° |
| 2026-04-24 23:44 | 20.91701 | -3.53698 | 34816 ft | 504 kts | 151° |
| 2026-04-24 23:45 | 20.86041 | -3.49298 | 34821 ft | 504 kts | 151° |
| 2026-04-24 23:45 | 20.80358 | -3.44884 | 34814 ft | 504 kts | 151° |
| 2026-04-24 23:46 | 20.74704 | -3.40497 | 34821 ft | 504 kts | 151° |
| 2026-04-24 23:46 | 20.69018 | -3.36088 | 34819 ft | 505 kts | 151° |
| 2026-04-24 23:47 | 20.63312 | -3.31669 | 34818 ft | 504 kts | 151° |
| 2026-04-24 23:47 | 20.57657 | -3.27294 | 34817 ft | 504 kts | 151° |
| 2026-04-24 23:48 | 20.51969 | -3.22896 | 34815 ft | 504 kts | 151° |
| 2026-04-24 23:48 | 20.46272 | -3.18496 | 34818 ft | 504 kts | 151° |
| 2026-04-24 23:49 | 20.40611 | -3.14128 | 34816 ft | 504 kts | 151° |
| 2026-04-24 23:49 | 20.34923 | -3.09743 | 34814 ft | 504 kts | 151° |
| 2026-04-24 23:50 | 20.29265 | -3.05385 | 34811 ft | 503 kts | 151° |
| 2026-04-24 23:50 | 20.23589 | -3.01018 | 34815 ft | 503 kts | 151° |
| 2026-04-24 23:51 | 20.17911 | -2.96653 | 34809 ft | 503 kts | 151° |
| 2026-04-24 23:51 | 20.12223 | -2.92285 | 34812 ft | 503 kts | 151° |
| 2026-04-24 23:52 | 20.06581 | -2.87955 | 34809 ft | 502 kts | 151° |
| 2026-04-24 23:52 | 20.00895 | -2.83597 | 34812 ft | 502 kts | 151° |
| 2026-04-24 23:53 | 19.95249 | -2.79272 | 34809 ft | 502 kts | 151° |
| 2026-04-24 23:53 | 19.89578 | -2.74932 | 34809 ft | 502 kts | 151° |
| 2026-04-24 23:54 | 19.83891 | -2.70584 | 34821 ft | 502 kts | 151° |
| 2026-04-24 23:54 | 19.78245 | -2.66272 | 34808 ft | 502 kts | 151° |
| 2026-04-24 23:55 | 19.72556 | -2.61930 | 34806 ft | 503 kts | 151° |
| 2026-04-24 23:55 | 19.66866 | -2.57592 | 34804 ft | 503 kts | 151° |
| 2026-04-24 23:56 | 19.61219 | -2.53289 | 34807 ft | 503 kts | 151° |
| 2026-04-24 23:56 | 19.55510 | -2.48944 | 34808 ft | 503 kts | 151° |
| 2026-04-24 23:57 | 19.49841 | -2.44633 | 34807 ft | 503 kts | 151° |
| 2026-04-24 23:57 | 19.44144 | -2.40304 | 34810 ft | 503 kts | 151° |
| 2026-04-24 23:58 | 19.38432 | -2.35968 | 34809 ft | 504 kts | 151° |
| 2026-04-24 23:58 | 19.32756 | -2.31663 | 34808 ft | 504 kts | 151° |
| 2026-04-24 23:59 | 19.27046 | -2.27336 | 34808 ft | 504 kts | 151° |
| 2026-04-24 23:59 | 19.21367 | -2.23036 | 34810 ft | 504 kts | 151° |
| 2026-04-25 00:00 | 19.15646 | -2.18707 | 34807 ft | 504 kts | 151° |
| 2026-04-25 00:00 | 19.09927 | -2.14385 | 34807 ft | 505 kts | 151° |
| 2026-04-25 00:01 | 19.04211 | -2.10068 | 34813 ft | 505 kts | 151° |
| 2026-04-25 00:01 | 18.98523 | -2.05776 | 34809 ft | 505 kts | 151° |
| 2026-04-25 00:02 | 18.92788 | -2.01452 | 34809 ft | 505 kts | 151° |
| 2026-04-25 00:02 | 18.87056 | -1.97134 | 34804 ft | 505 kts | 151° |
| 2026-04-25 00:03 | 18.81360 | -1.92848 | 34808 ft | 505 kts | 151° |
| 2026-04-25 00:03 | 18.75637 | -1.88543 | 34805 ft | 505 kts | 151° |
| 2026-04-25 00:04 | 18.69898 | -1.84231 | 34809 ft | 505 kts | 151° |
| 2026-04-25 00:04 | 18.64192 | -1.79946 | 34806 ft | 504 kts | 151° |
| 2026-04-25 00:05 | 18.58498 | -1.75675 | 34811 ft | 504 kts | 151° |
| 2026-04-25 00:05 | 18.52779 | -1.71392 | 34809 ft | 504 kts | 151° |
| 2026-04-25 00:06 | 18.47054 | -1.67112 | 34802 ft | 503 kts | 151° |
| 2026-04-25 00:06 | 18.41333 | -1.62838 | 34813 ft | 503 kts | 151° |
| 2026-04-25 00:07 | 18.35638 | -1.58585 | 34811 ft | 502 kts | 151° |
| 2026-04-25 00:07 | 18.29970 | -1.54355 | 34805 ft | 502 kts | 151° |
| 2026-04-25 00:08 | 18.24260 | -1.50098 | 34806 ft | 502 kts | 150° |
| 2026-04-25 00:08 | 18.18553 | -1.45845 | 34806 ft | 501 kts | 150° |
| 2026-04-25 00:09 | 18.12897 | -1.41634 | 34804 ft | 501 kts | 150° |
| 2026-04-25 00:09 | 18.07187 | -1.37390 | 34805 ft | 500 kts | 150° |
| 2026-04-25 00:10 | 18.01531 | -1.33187 | 34806 ft | 500 kts | 150° |
| 2026-04-25 00:10 | 17.95847 | -1.28965 | 34800 ft | 500 kts | 150° |
| 2026-04-25 00:11 | 17.91118 | -1.25455 | 34805 ft | 500 kts | 150° |
| 2026-04-25 00:11 | 17.84465 | -1.20520 | 34804 ft | 500 kts | 150° |
| 2026-04-25 00:12 | 17.78823 | -1.16339 | 34800 ft | 500 kts | 150° |
| 2026-04-25 00:12 | 17.73121 | -1.12118 | 34800 ft | 500 kts | 150° |
| 2026-04-25 00:13 | 17.67434 | -1.07911 | 34797 ft | 500 kts | 150° |
| 2026-04-25 00:13 | 17.61782 | -1.03732 | 34797 ft | 500 kts | 150° |
| 2026-04-25 00:14 | 17.56077 | -0.99518 | 34799 ft | 500 kts | 150° |
| 2026-04-25 00:14 | 17.50422 | -0.95344 | 34793 ft | 500 kts | 150° |
| 2026-04-25 00:15 | 17.44726 | -0.91143 | 34788 ft | 499 kts | 150° |
| 2026-04-25 00:15 | 17.39045 | -0.86956 | 34791 ft | 499 kts | 150° |
| 2026-04-25 00:16 | 17.34319 | -0.83476 | 34786 ft | 499 kts | 150° |
| 2026-04-25 00:16 | 17.28632 | -0.79290 | 34786 ft | 498 kts | 150° |
| 2026-04-25 00:17 | 17.22990 | -0.75142 | 34785 ft | 498 kts | 150° |
| 2026-04-25 00:17 | 17.17313 | -0.70970 | 34781 ft | 497 kts | 150° |
| 2026-04-25 00:18 | 17.11627 | -0.66796 | 34783 ft | 497 kts | 150° |
| 2026-04-25 00:18 | 17.05996 | -0.62664 | 34781 ft | 496 kts | 150° |
| 2026-04-25 00:19 | 17.00333 | -0.58513 | 34784 ft | 496 kts | 150° |
| 2026-04-25 00:19 | 16.94703 | -0.54389 | 34778 ft | 496 kts | 150° |
| 2026-04-25 00:20 | 16.89075 | -0.50269 | 34777 ft | 495 kts | 150° |
| 2026-04-25 00:20 | 16.83425 | -0.46136 | 34774 ft | 495 kts | 150° |
| 2026-04-25 00:21 | 16.77768 | -0.42001 | 34774 ft | 495 kts | 150° |
| 2026-04-25 00:21 | 16.72113 | -0.37871 | 34779 ft | 495 kts | 149° |
| 2026-04-25 00:22 | 16.66463 | -0.33747 | 34776 ft | 495 kts | 149° |
| 2026-04-25 00:22 | 16.60854 | -0.29656 | 34775 ft | 495 kts | 149° |
| 2026-04-25 00:23 | 16.55206 | -0.25539 | 34774 ft | 495 kts | 149° |
| 2026-04-25 00:23 | 16.49558 | -0.21426 | 34773 ft | 495 kts | 149° |
| 2026-04-25 00:24 | 16.43936 | -0.17334 | 34773 ft | 495 kts | 149° |
| 2026-04-25 00:24 | 16.38275 | -0.13217 | 34772 ft | 495 kts | 149° |
| 2026-04-25 00:25 | 16.32658 | -0.09134 | 34770 ft | 494 kts | 149° |
| 2026-04-25 00:25 | 16.27016 | -0.05036 | 34771 ft | 494 kts | 149° |
| 2026-04-25 00:26 | 16.21410 | -0.00853 | 34763 ft | 496 kts | 146° |
| 2026-04-25 00:26 | 16.16031 | 0.03592 | 34771 ft | 496 kts | 145° |
| 2026-04-25 00:27 | 16.10644 | 0.08114 | 34766 ft | 496 kts | 145° |
| 2026-04-25 00:27 | 16.05237 | 0.12593 | 34763 ft | 496 kts | 146° |
| 2026-04-25 00:28 | 15.99849 | 0.17021 | 34763 ft | 496 kts | 146° |
| 2026-04-25 00:28 | 15.94428 | 0.21473 | 34760 ft | 495 kts | 146° |
| 2026-04-25 00:29 | 15.89051 | 0.25890 | 34760 ft | 495 kts | 146° |
| 2026-04-25 00:29 | 15.83637 | 0.30335 | 34764 ft | 495 kts | 146° |
| 2026-04-25 00:30 | 15.78228 | 0.34782 | 34759 ft | 495 kts | 145° |
| 2026-04-25 00:30 | 15.72833 | 0.39220 | 34758 ft | 494 kts | 145° |
| 2026-04-25 00:31 | 15.67464 | 0.43632 | 34761 ft | 494 kts | 145° |
| 2026-04-25 00:31 | 15.62067 | 0.48065 | 34754 ft | 493 kts | 145° |
| 2026-04-25 00:32 | 15.56705 | 0.52465 | 34757 ft | 493 kts | 145° |
| 2026-04-25 00:32 | 15.51313 | 0.56888 | 34753 ft | 493 kts | 145° |
| 2026-04-25 00:33 | 15.45933 | 0.61298 | 34752 ft | 492 kts | 145° |
| 2026-04-25 00:33 | 15.40573 | 0.65674 | 34757 ft | 492 kts | 146° |
| 2026-04-25 00:34 | 15.35183 | 0.70059 | 34755 ft | 492 kts | 146° |
| 2026-04-25 00:34 | 15.29800 | 0.74436 | 34759 ft | 492 kts | 146° |
| 2026-04-25 00:35 | 15.24438 | 0.78796 | 34755 ft | 492 kts | 146° |
| 2026-04-25 00:35 | 15.19053 | 0.83174 | 34757 ft | 492 kts | 146° |
| 2026-04-25 00:36 | 15.13658 | 0.87557 | 34755 ft | 492 kts | 146° |
| 2026-04-25 00:36 | 15.08270 | 0.91931 | 34756 ft | 492 kts | 146° |
| 2026-04-25 00:37 | 15.02910 | 0.96279 | 34758 ft | 492 kts | 146° |
| 2026-04-25 00:37 | 14.97521 | 1.00648 | 34753 ft | 492 kts | 146° |
| 2026-04-25 00:38 | 14.92130 | 1.05016 | 34763 ft | 492 kts | 146° |
| 2026-04-25 00:38 | 14.86726 | 1.09392 | 34757 ft | 492 kts | 146° |
| 2026-04-25 00:39 | 14.81366 | 1.13729 | 34757 ft | 492 kts | 146° |
| 2026-04-25 00:39 | 14.75965 | 1.18096 | 34761 ft | 492 kts | 146° |
| 2026-04-25 00:40 | 14.70600 | 1.22432 | 34762 ft | 491 kts | 146° |
| 2026-04-25 00:40 | 14.65201 | 1.26792 | 34759 ft | 491 kts | 146° |
| 2026-04-25 00:41 | 14.59839 | 1.31119 | 34772 ft | 491 kts | 146° |
| 2026-04-25 00:41 | 14.54439 | 1.35475 | 34760 ft | 491 kts | 146° |
| 2026-04-25 00:42 | 14.49078 | 1.39796 | 34761 ft | 491 kts | 146° |
| 2026-04-25 00:42 | 14.43685 | 1.44140 | 34766 ft | 491 kts | 146° |
| 2026-04-25 00:43 | 14.38301 | 1.48474 | 34776 ft | 491 kts | 146° |
| 2026-04-25 00:43 | 14.32910 | 1.52811 | 34764 ft | 491 kts | 146° |
| 2026-04-25 00:44 | 14.27515 | 1.57149 | 34768 ft | 491 kts | 146° |
| 2026-04-25 00:44 | 14.22119 | 1.61484 | 34772 ft | 491 kts | 146° |
| 2026-04-25 00:45 | 14.16723 | 1.65817 | 34772 ft | 491 kts | 146° |
| 2026-04-25 00:45 | 14.11366 | 1.70117 | 34763 ft | 492 kts | 146° |
| 2026-04-25 00:46 | 14.05956 | 1.74456 | 34772 ft | 491 kts | 146° |
| 2026-04-25 00:47 | 13.97867 | 1.80939 | 34781 ft | 491 kts | 146° |
| 2026-04-25 00:47 | 13.92462 | 1.85267 | 34775 ft | 491 kts | 146° |
| 2026-04-25 00:48 | 13.87099 | 1.89559 | 34778 ft | 491 kts | 146° |
| 2026-04-25 00:48 | 13.81699 | 1.93879 | 34780 ft | 490 kts | 146° |
| 2026-04-25 00:49 | 13.76309 | 1.98188 | 34788 ft | 490 kts | 146° |
| 2026-04-25 00:49 | 13.70956 | 2.02464 | 34793 ft | 489 kts | 146° |
| 2026-04-25 00:50 | 13.65563 | 2.06771 | 34803 ft | 489 kts | 146° |
| 2026-04-25 00:50 | 13.60219 | 2.11036 | 34804 ft | 488 kts | 146° |
| 2026-04-25 00:51 | 13.54833 | 2.15332 | 34804 ft | 488 kts | 146° |
| 2026-04-25 00:51 | 13.49517 | 2.19598 | 34795 ft | 488 kts | 142° |
| 2026-04-25 00:52 | 13.44948 | 2.24810 | 34808 ft | 493 kts | 129° |
| 2026-04-25 00:52 | 13.40922 | 2.30530 | 34805 ft | 493 kts | 128° |
| 2026-04-25 00:53 | 13.36927 | 2.36217 | 34801 ft | 492 kts | 128° |
| 2026-04-25 00:53 | 13.32878 | 2.41891 | 34794 ft | 492 kts | 129° |
| 2026-04-25 00:54 | 13.28804 | 2.47553 | 34791 ft | 491 kts | 129° |
| 2026-04-25 00:54 | 13.24753 | 2.53174 | 34795 ft | 491 kts | 129° |
| 2026-04-25 00:55 | 13.20687 | 2.58815 | 34791 ft | 491 kts | 129° |
| 2026-04-25 00:55 | 13.16627 | 2.64446 | 34789 ft | 490 kts | 129° |
| 2026-04-25 00:56 | 13.12578 | 2.70061 | 34790 ft | 490 kts | 129° |
| 2026-04-25 00:56 | 13.08519 | 2.75685 | 34788 ft | 489 kts | 129° |
| 2026-04-25 00:57 | 13.04485 | 2.81271 | 34786 ft | 489 kts | 129° |
| 2026-04-25 00:57 | 13.00430 | 2.86882 | 34789 ft | 489 kts | 129° |
| 2026-04-25 00:58 | 12.96376 | 2.92489 | 34786 ft | 489 kts | 129° |
| 2026-04-25 00:58 | 12.92342 | 2.98064 | 34788 ft | 489 kts | 129° |
| 2026-04-25 00:59 | 12.88288 | 3.03664 | 34787 ft | 488 kts | 129° |
| 2026-04-25 00:59 | 12.84256 | 3.09230 | 34785 ft | 489 kts | 129° |
| 2026-04-25 01:00 | 12.80191 | 3.14838 | 34783 ft | 489 kts | 129° |
| 2026-04-25 01:00 | 12.76125 | 3.20445 | 34785 ft | 489 kts | 129° |
| 2026-04-25 01:01 | 12.72083 | 3.26014 | 34789 ft | 489 kts | 129° |
| 2026-04-25 01:01 | 12.68014 | 3.31618 | 34793 ft | 490 kts | 129° |
| 2026-04-25 01:02 | 12.63963 | 3.37195 | 34787 ft | 490 kts | 129° |
| 2026-04-25 01:02 | 12.59906 | 3.42777 | 34787 ft | 490 kts | 129° |
| 2026-04-25 01:03 | 12.55826 | 3.48386 | 34783 ft | 491 kts | 129° |
| 2026-04-25 01:03 | 12.52433 | 3.53052 | 34780 ft | 491 kts | 128° |
| 2026-04-25 01:04 | 12.47679 | 3.59591 | 34782 ft | 491 kts | 128° |
| 2026-04-25 01:04 | 12.44220 | 3.64214 | 34771 ft | 490 kts | 133° |
| 2026-04-25 01:05 | 12.39609 | 3.69369 | 34782 ft | 489 kts | 136° |
| 2026-04-25 01:05 | 12.34928 | 3.74384 | 34774 ft | 489 kts | 136° |
| 2026-04-25 01:06 | 12.30254 | 3.79459 | 34779 ft | 489 kts | 135° |
| 2026-04-25 01:06 | 12.25611 | 3.84560 | 34776 ft | 489 kts | 135° |
| 2026-04-25 01:07 | 12.20983 | 3.89658 | 34775 ft | 488 kts | 135° |
| 2026-04-25 01:07 | 12.16382 | 3.94722 | 34772 ft | 488 kts | 135° |
| 2026-04-25 01:08 | 12.11746 | 3.99817 | 34773 ft | 487 kts | 135° |
| 2026-04-25 01:08 | 12.07123 | 4.04893 | 34777 ft | 487 kts | 135° |
| 2026-04-25 01:09 | 12.02531 | 4.09935 | 34777 ft | 487 kts | 135° |
| 2026-04-25 01:09 | 11.97904 | 4.15011 | 34777 ft | 486 kts | 135° |
| 2026-04-25 01:10 | 11.93324 | 4.20036 | 34780 ft | 486 kts | 135° |
| 2026-04-25 01:10 | 11.88700 | 4.25102 | 34781 ft | 486 kts | 135° |
| 2026-04-25 01:11 | 11.84110 | 4.30125 | 34785 ft | 486 kts | 135° |
| 2026-04-25 01:11 | 11.79497 | 4.35171 | 34788 ft | 485 kts | 135° |
| 2026-04-25 01:12 | 11.74883 | 4.40217 | 34790 ft | 485 kts | 135° |
| 2026-04-25 01:12 | 11.70295 | 4.45232 | 34788 ft | 485 kts | 135° |
| 2026-04-25 01:13 | 11.65686 | 4.50270 | 34788 ft | 485 kts | 135° |
| 2026-04-25 01:13 | 11.61072 | 4.55309 | 34788 ft | 485 kts | 135° |
| 2026-04-25 01:14 | 11.56474 | 4.60297 | 34791 ft | 484 kts | 136° |
| 2026-04-25 01:14 | 11.51822 | 4.65283 | 34790 ft | 483 kts | 136° |
| 2026-04-25 01:15 | 11.47209 | 4.70222 | 34793 ft | 483 kts | 136° |
| 2026-04-25 01:15 | 11.42576 | 4.75190 | 34795 ft | 482 kts | 135° |
| 2026-04-25 01:16 | 11.37977 | 4.80124 | 34798 ft | 481 kts | 135° |
| 2026-04-25 01:16 | 11.33361 | 4.85074 | 34797 ft | 480 kts | 135° |
| 2026-04-25 01:17 | 11.28752 | 4.90014 | 34801 ft | 479 kts | 135° |
| 2026-04-25 01:17 | 11.24183 | 4.94908 | 34801 ft | 478 kts | 135° |
| 2026-04-25 01:18 | 11.19588 | 4.99828 | 34805 ft | 477 kts | 135° |
| 2026-04-25 01:18 | 11.15032 | 5.04703 | 34806 ft | 477 kts | 135° |
| 2026-04-25 01:19 | 11.10453 | 5.09601 | 34806 ft | 476 kts | 135° |
| 2026-04-25 01:19 | 11.05906 | 5.14461 | 34808 ft | 476 kts | 135° |
| 2026-04-25 01:20 | 11.01334 | 5.19347 | 34816 ft | 476 kts | 135° |
| 2026-04-25 01:20 | 10.96764 | 5.24228 | 34816 ft | 476 kts | 135° |
| 2026-04-25 01:21 | 10.92205 | 5.29095 | 34821 ft | 476 kts | 135° |
| 2026-04-25 01:21 | 10.87626 | 5.33981 | 34820 ft | 476 kts | 135° |
| 2026-04-25 01:22 | 10.83048 | 5.38863 | 34827 ft | 476 kts | 135° |
| 2026-04-25 01:22 | 10.78494 | 5.43718 | 34826 ft | 476 kts | 135° |
| 2026-04-25 01:23 | 10.73913 | 5.48599 | 34831 ft | 476 kts | 136° |
| 2026-04-25 01:23 | 10.69362 | 5.53446 | 34830 ft | 475 kts | 136° |
| 2026-04-25 01:24 | 10.64794 | 5.58310 | 34836 ft | 474 kts | 136° |
| 2026-04-25 01:24 | 10.60255 | 5.63139 | 34833 ft | 473 kts | 136° |
| 2026-04-25 01:25 | 10.55709 | 5.67975 | 34837 ft | 472 kts | 136° |
| 2026-04-25 01:25 | 10.51162 | 5.72809 | 34835 ft | 471 kts | 136° |
| 2026-04-25 01:26 | 10.46662 | 5.77590 | 34839 ft | 469 kts | 136° |
| 2026-04-25 01:26 | 10.42149 | 5.82385 | 34836 ft | 468 kts | 136° |
| 2026-04-25 01:27 | 10.37679 | 5.87132 | 34834 ft | 467 kts | 136° |
| 2026-04-25 01:27 | 10.33196 | 5.91889 | 34838 ft | 465 kts | 136° |
| 2026-04-25 01:28 | 10.26491 | 5.99021 | 34838 ft | 464 kts | 136° |
| 2026-04-25 01:28 | 10.22034 | 6.03765 | 34839 ft | 464 kts | 136° |
| 2026-04-25 01:29 | 10.17569 | 6.08516 | 34840 ft | 464 kts | 136° |
| 2026-04-25 01:29 | 10.13130 | 6.13232 | 34841 ft | 464 kts | 136° |
| 2026-04-25 01:30 | 10.08652 | 6.17962 | 34840 ft | 464 kts | 136° |
| 2026-04-25 01:30 | 10.04190 | 6.22667 | 34840 ft | 465 kts | 136° |
| 2026-04-25 01:31 | 9.99700 | 6.27406 | 34844 ft | 465 kts | 136° |
| 2026-04-25 01:31 | 9.95232 | 6.32121 | 34843 ft | 465 kts | 136° |
| 2026-04-25 01:32 | 9.90739 | 6.36862 | 34845 ft | 465 kts | 136° |
| 2026-04-25 01:32 | 9.86254 | 6.41607 | 34843 ft | 465 kts | 136° |
| 2026-04-25 01:33 | 9.81772 | 6.46351 | 34844 ft | 465 kts | 136° |
| 2026-04-25 01:33 | 9.77309 | 6.51071 | 34840 ft | 465 kts | 136° |
| 2026-04-25 01:34 | 9.72828 | 6.55809 | 34851 ft | 464 kts | 136° |
| 2026-04-25 01:34 | 9.68390 | 6.60525 | 34847 ft | 464 kts | 135° |
| 2026-04-25 01:35 | 9.64023 | 6.65341 | 34852 ft | 463 kts | 134° |
| 2026-04-25 01:35 | 9.59671 | 6.70177 | 34851 ft | 463 kts | 134° |
| 2026-04-25 01:36 | 9.55338 | 6.74971 | 34855 ft | 462 kts | 134° |
| 2026-04-25 01:36 | 9.50978 | 6.79778 | 34855 ft | 462 kts | 134° |
| 2026-04-25 01:37 | 9.46652 | 6.84543 | 34858 ft | 461 kts | 134° |
| 2026-04-25 01:37 | 9.42297 | 6.89340 | 34858 ft | 461 kts | 134° |
| 2026-04-25 01:38 | 9.37950 | 6.94127 | 34860 ft | 461 kts | 134° |
| 2026-04-25 01:38 | 9.33630 | 6.98883 | 34860 ft | 461 kts | 134° |
| 2026-04-25 01:39 | 9.29267 | 7.03660 | 34858 ft | 461 kts | 135° |
| 2026-04-25 01:39 | 9.24694 | 7.08200 | 34869 ft | 460 kts | 138° |
| 2026-04-25 01:40 | 9.20076 | 7.12630 | 34868 ft | 460 kts | 137° |
| 2026-04-25 01:40 | 9.15439 | 7.17128 | 34865 ft | 461 kts | 137° |
| 2026-04-25 01:41 | 9.10818 | 7.21642 | 34866 ft | 461 kts | 137° |
| 2026-04-25 01:41 | 9.06195 | 7.26161 | 34868 ft | 461 kts | 137° |
| 2026-04-25 01:42 | 9.01597 | 7.30639 | 34871 ft | 461 kts | 137° |
| 2026-04-25 01:42 | 8.96943 | 7.35136 | 34868 ft | 462 kts | 137° |
| 2026-04-25 01:43 | 8.92322 | 7.39596 | 34870 ft | 461 kts | 137° |
| 2026-04-25 01:43 | 8.87677 | 7.44081 | 34870 ft | 461 kts | 137° |
| 2026-04-25 01:44 | 8.83023 | 7.48578 | 34869 ft | 461 kts | 137° |
| 2026-04-25 01:44 | 8.78384 | 7.53058 | 34867 ft | 460 kts | 137° |
| 2026-04-25 01:45 | 8.73770 | 7.57513 | 34866 ft | 460 kts | 137° |
| 2026-04-25 01:45 | 8.69159 | 7.61963 | 34864 ft | 459 kts | 137° |
| 2026-04-25 01:46 | 8.64531 | 7.66428 | 34860 ft | 458 kts | 137° |
| 2026-04-25 01:46 | 8.59941 | 7.70855 | 34863 ft | 458 kts | 137° |
| 2026-04-25 01:47 | 8.55320 | 7.75310 | 34858 ft | 458 kts | 137° |
| 2026-04-25 01:47 | 8.50729 | 7.79735 | 34860 ft | 457 kts | 137° |
| 2026-04-25 01:48 | 8.46119 | 7.84175 | 34858 ft | 457 kts | 137° |
| 2026-04-25 01:48 | 8.41517 | 7.88608 | 34854 ft | 457 kts | 137° |
| 2026-04-25 01:49 | 8.36940 | 7.93014 | 34856 ft | 457 kts | 137° |
| 2026-04-25 01:49 | 8.32338 | 7.97444 | 34854 ft | 456 kts | 136° |
| 2026-04-25 01:50 | 8.27734 | 8.01875 | 34854 ft | 456 kts | 136° |
| 2026-04-25 01:50 | 8.23908 | 8.05555 | 34850 ft | 456 kts | 136° |
| 2026-04-25 01:51 | 8.19366 | 8.10038 | 34851 ft | 456 kts | 134° |
| 2026-04-25 01:51 | 8.14263 | 8.15435 | 34851 ft | 456 kts | 134° |
| 2026-04-25 01:52 | 8.10618 | 8.19301 | 34851 ft | 456 kts | 134° |
| 2026-04-25 01:52 | 8.06224 | 8.23920 | 34848 ft | 456 kts | 134° |
| 2026-04-25 01:53 | 8.01806 | 8.28543 | 34850 ft | 455 kts | 134° |
| 2026-04-25 01:53 | 7.97432 | 8.33115 | 34850 ft | 455 kts | 134° |
| 2026-04-25 01:54 | 7.93017 | 8.37729 | 34848 ft | 455 kts | 134° |
| 2026-04-25 01:54 | 7.88640 | 8.42304 | 34849 ft | 454 kts | 134° |
| 2026-04-25 01:55 | 7.84251 | 8.46891 | 34845 ft | 454 kts | 134° |
| 2026-04-25 01:55 | 7.79884 | 8.51452 | 34847 ft | 453 kts | 134° |
| 2026-04-25 01:56 | 7.75506 | 8.56024 | 34846 ft | 452 kts | 134° |
| 2026-04-25 01:56 | 7.71130 | 8.60546 | 34844 ft | 452 kts | 137° |
| 2026-04-25 01:57 | 7.64031 | 8.66814 | 34851 ft | 451 kts | 139° |
| 2026-04-25 01:58 | 7.59251 | 8.70936 | 34849 ft | 451 kts | 139° |
| 2026-04-25 01:58 | 7.54539 | 8.75048 | 34847 ft | 450 kts | 139° |
| 2026-04-25 01:59 | 7.49803 | 8.79201 | 34852 ft | 450 kts | 139° |
| 2026-04-25 01:59 | 7.45108 | 8.83319 | 34852 ft | 450 kts | 139° |
| 2026-04-25 02:00 | 7.40384 | 8.87460 | 34856 ft | 449 kts | 139° |
| 2026-04-25 02:00 | 7.35668 | 8.91592 | 34849 ft | 449 kts | 139° |
| 2026-04-25 02:01 | 7.30936 | 8.95738 | 34858 ft | 449 kts | 139° |
| 2026-04-25 02:01 | 7.26237 | 8.99853 | 34858 ft | 450 kts | 139° |
| 2026-04-25 02:02 | 7.21862 | 9.04369 | 34862 ft | 451 kts | 132° |
| 2026-04-25 02:02 | 7.17709 | 9.09112 | 34857 ft | 451 kts | 132° |
| 2026-04-25 02:03 | 7.13497 | 9.13814 | 34858 ft | 452 kts | 133° |
| 2026-04-25 02:03 | 7.08737 | 9.17857 | 34863 ft | 451 kts | 154° |
| 2026-04-25 02:03 | 7.05802 | 9.19010 | 34854 ft | 452 kts | 166° |
| 2026-04-25 02:04 | 7.02689 | 9.19478 | 34863 ft | 452 kts | 175° |
| 2026-04-25 02:04 | 6.96435 | 9.19832 | 34855 ft | 453 kts | 176° |
| 2026-04-25 02:05 | 6.90116 | 9.20173 | 34853 ft | 454 kts | 176° |
| 2026-04-25 02:05 | 6.83801 | 9.20564 | 34858 ft | 455 kts | 175° |
| 2026-04-25 02:06 | 6.77469 | 9.20983 | 34862 ft | 455 kts | 175° |
| 2026-04-25 02:06 | 6.71161 | 9.21405 | 34864 ft | 455 kts | 175° |
| 2026-04-25 02:07 | 6.64858 | 9.21825 | 34870 ft | 455 kts | 175° |
| 2026-04-25 02:07 | 6.58509 | 9.22247 | 34877 ft | 455 kts | 175° |
| 2026-04-25 02:08 | 6.52216 | 9.22664 | 34873 ft | 455 kts | 175° |
| 2026-04-25 02:08 | 6.45887 | 9.23084 | 34884 ft | 455 kts | 175° |
| 2026-04-25 02:09 | 6.39556 | 9.23504 | 34884 ft | 455 kts | 175° |
| 2026-04-25 02:09 | 6.33262 | 9.23921 | 34883 ft | 455 kts | 175° |
| 2026-04-25 02:10 | 6.26930 | 9.24342 | 34881 ft | 455 kts | 175° |
| 2026-04-25 02:10 | 6.20617 | 9.24760 | 34884 ft | 455 kts | 175° |
| 2026-04-25 02:11 | 6.14337 | 9.25222 | 34885 ft | 454 kts | 173° |
| 2026-04-25 02:11 | 6.08053 | 9.25968 | 34884 ft | 454 kts | 172° |
| 2026-04-25 02:12 | 6.01809 | 9.26752 | 34880 ft | 454 kts | 172° |
| 2026-04-25 02:12 | 5.95517 | 9.27503 | 34881 ft | 455 kts | 172° |
| 2026-04-25 02:13 | 5.89223 | 9.28235 | 34878 ft | 455 kts | 172° |
| 2026-04-25 02:13 | 5.82929 | 9.28965 | 34878 ft | 455 kts | 172° |
| 2026-04-25 02:14 | 5.76672 | 9.29693 | 34880 ft | 455 kts | 172° |
| 2026-04-25 02:14 | 5.70369 | 9.30442 | 34880 ft | 455 kts | 170° |
| 2026-04-25 02:15 | 5.64179 | 9.31670 | 34884 ft | 455 kts | 166° |
| 2026-04-25 02:15 | 5.57992 | 9.33084 | 34878 ft | 455 kts | 166° |
| 2026-04-25 02:16 | 5.51828 | 9.34473 | 34880 ft | 456 kts | 166° |
| 2026-04-25 02:16 | 5.45611 | 9.35839 | 34887 ft | 456 kts | 167° |
| 2026-04-25 02:17 | 5.39430 | 9.37183 | 34884 ft | 456 kts | 167° |
| 2026-04-25 02:17 | 5.33216 | 9.38532 | 34893 ft | 456 kts | 167° |
| 2026-04-25 02:18 | 5.26983 | 9.39886 | 34904 ft | 456 kts | 167° |
| 2026-04-25 02:18 | 5.20808 | 9.41229 | 34906 ft | 457 kts | 167° |
| 2026-04-25 02:19 | 5.14571 | 9.42585 | 34906 ft | 457 kts | 167° |
| 2026-04-25 02:19 | 5.08358 | 9.43934 | 34915 ft | 457 kts | 167° |
| 2026-04-25 02:20 | 5.02165 | 9.45280 | 34917 ft | 457 kts | 167° |
| 2026-04-25 02:20 | 4.95965 | 9.46627 | 34913 ft | 457 kts | 167° |
| 2026-04-25 02:21 | 4.89740 | 9.47979 | 34916 ft | 457 kts | 167° |
| 2026-04-25 02:21 | 4.83509 | 9.49332 | 34913 ft | 457 kts | 167° |
| 2026-04-25 02:22 | 4.77289 | 9.50682 | 34909 ft | 457 kts | 166° |
| 2026-04-25 02:22 | 4.71103 | 9.52024 | 34907 ft | 457 kts | 167° |
| 2026-04-25 02:23 | 4.64890 | 9.53373 | 34900 ft | 457 kts | 166° |
| 2026-04-25 02:23 | 4.58650 | 9.54727 | 34897 ft | 457 kts | 166° |
| 2026-04-25 02:24 | 4.52454 | 9.56072 | 34893 ft | 457 kts | 166° |
| 2026-04-25 02:24 | 4.46283 | 9.57655 | 34892 ft | 456 kts | 160° |
| 2026-04-25 02:25 | 4.40333 | 9.59784 | 34881 ft | 456 kts | 159° |
| 2026-04-25 02:25 | 4.34352 | 9.61971 | 34886 ft | 457 kts | 159° |
| 2026-04-25 02:26 | 4.28391 | 9.64096 | 34875 ft | 457 kts | 159° |
| 2026-04-25 02:26 | 4.22388 | 9.66209 | 34869 ft | 457 kts | 159° |
| 2026-04-25 02:27 | 4.16377 | 9.68323 | 34866 ft | 457 kts | 159° |
| 2026-04-25 02:27 | 4.10347 | 9.70445 | 34856 ft | 458 kts | 159° |
| 2026-04-25 02:28 | 4.04370 | 9.72550 | 34858 ft | 458 kts | 159° |
| 2026-04-25 02:28 | 3.98240 | 9.74324 | 34854 ft | 460 kts | 170° |
| 2026-04-25 02:29 | 3.91870 | 9.74667 | 34857 ft | 461 kts | 177° |
| 2026-04-25 02:29 | 3.85443 | 9.74796 | 34862 ft | 461 kts | 177° |
| 2026-04-25 02:30 | 3.79014 | 9.74952 | 34867 ft | 462 kts | 177° |
| 2026-04-25 02:30 | 3.72584 | 9.75143 | 34872 ft | 462 kts | 177° |
| 2026-04-25 02:31 | 3.66190 | 9.75346 | 34876 ft | 462 kts | 177° |
| 2026-04-25 02:31 | 3.59737 | 9.75552 | 34876 ft | 463 kts | 177° |
| 2026-04-25 02:32 | 3.53324 | 9.75756 | 34876 ft | 463 kts | 177° |
| 2026-04-25 02:32 | 3.46865 | 9.75960 | 34876 ft | 463 kts | 177° |
| 2026-04-25 02:33 | 3.40415 | 9.76163 | 34878 ft | 464 kts | 177° |
| 2026-04-25 02:33 | 3.33992 | 9.76366 | 34875 ft | 464 kts | 177° |
| 2026-04-25 02:34 | 3.27525 | 9.76570 | 34880 ft | 464 kts | 177° |
| 2026-04-25 02:34 | 3.21058 | 9.76774 | 34876 ft | 464 kts | 177° |
| 2026-04-25 02:35 | 3.14604 | 9.76978 | 34877 ft | 464 kts | 177° |
| 2026-04-25 02:35 | 3.08189 | 9.77181 | 34878 ft | 464 kts | 177° |
| 2026-04-25 02:36 | 3.01727 | 9.77384 | 34880 ft | 464 kts | 177° |
| 2026-04-25 02:36 | 2.95277 | 9.77588 | 34875 ft | 464 kts | 177° |
| 2026-04-25 02:37 | 2.88816 | 9.77792 | 34878 ft | 463 kts | 177° |
| 2026-04-25 02:37 | 2.82363 | 9.77995 | 34878 ft | 463 kts | 177° |
| 2026-04-25 02:38 | 2.75951 | 9.78197 | 34877 ft | 463 kts | 177° |
| 2026-04-25 02:38 | 2.70602 | 9.78366 | 34878 ft | 463 kts | 177° |
| 2026-04-25 02:39 | 2.63092 | 9.78603 | 34879 ft | 462 kts | 177° |
| 2026-04-25 02:39 | 2.57731 | 9.78772 | 34876 ft | 462 kts | 177° |
| 2026-04-25 02:39 | 2.53448 | 9.78907 | 34406 ft | 469 kts | 177° |
| 2026-04-25 02:40 | 2.51230 | 9.78978 | 34027 ft | 469 kts | 177° |
| 2026-04-25 02:40 | 2.48007 | 9.79079 | 33340 ft | 469 kts | 177° |
| 2026-04-25 02:40 | 2.44729 | 9.79183 | 32626 ft | 470 kts | 177° |
| 2026-04-25 02:40 | 2.42384 | 9.79256 | 32165 ft | 469 kts | 177° |
| 2026-04-25 02:41 | 2.41155 | 9.79295 | 31986 ft | 467 kts | 177° |
| 2026-04-25 02:41 | 2.38921 | 9.79365 | 31654 ft | 464 kts | 177° |
| 2026-04-25 02:41 | 2.35708 | 9.79466 | 31153 ft | 460 kts | 177° |
| 2026-04-25 02:41 | 2.32555 | 9.79565 | 30671 ft | 457 kts | 177° |
| 2026-04-25 02:42 | 2.29388 | 9.79665 | 30173 ft | 454 kts | 177° |
| 2026-04-25 02:42 | 2.26243 | 9.79764 | 29626 ft | 451 kts | 177° |
| 2026-04-25 02:42 | 2.23115 | 9.79863 | 29100 ft | 447 kts | 177° |
| 2026-04-25 02:42 | 2.20018 | 9.79961 | 28575 ft | 443 kts | 177° |
| 2026-04-25 02:43 | 2.16946 | 9.80057 | 28072 ft | 439 kts | 178° |
| 2026-04-25 02:43 | 2.13899 | 9.80153 | 27578 ft | 435 kts | 178° |
| 2026-04-25 02:43 | 2.10890 | 9.80248 | 27094 ft | 431 kts | 178° |
| 2026-04-25 02:43 | 2.07939 | 9.80341 | 26620 ft | 428 kts | 178° |
| 2026-04-25 02:44 | 2.04975 | 9.80435 | 26140 ft | 425 kts | 178° |
| 2026-04-25 02:44 | 2.02020 | 9.80528 | 25662 ft | 422 kts | 178° |
| 2026-04-25 02:44 | 1.99097 | 9.80620 | 25194 ft | 419 kts | 178° |
| 2026-04-25 02:44 | 1.96178 | 9.80712 | 24700 ft | 417 kts | 178° |
| 2026-04-25 02:45 | 1.93270 | 9.80803 | 24229 ft | 415 kts | 178° |
| 2026-04-25 02:45 | 1.90426 | 9.80740 | 23743 ft | 414 kts | 189° |
| 2026-04-25 02:45 | 1.87693 | 9.79914 | 23479 ft | 407 kts | 202° |
| 2026-04-25 02:45 | 1.85103 | 9.78794 | 22967 ft | 404 kts | 204° |
| 2026-04-25 02:46 | 1.82553 | 9.77627 | 22503 ft | 401 kts | 204° |
| 2026-04-25 02:46 | 1.80025 | 9.76454 | 22042 ft | 399 kts | 204° |
| 2026-04-25 02:46 | 1.77535 | 9.75305 | 21595 ft | 396 kts | 204° |
| 2026-04-25 02:46 | 1.75030 | 9.74160 | 21136 ft | 394 kts | 204° |
| 2026-04-25 02:47 | 1.72535 | 9.73031 | 20686 ft | 392 kts | 204° |
| 2026-04-25 02:47 | 1.70049 | 9.71913 | 20236 ft | 391 kts | 204° |
| 2026-04-25 02:47 | 1.67572 | 9.70804 | 19771 ft | 389 kts | 203° |
| 2026-04-25 02:47 | 1.65094 | 9.69696 | 19318 ft | 389 kts | 203° |
| 2026-04-25 02:48 | 1.62656 | 9.68608 | 18864 ft | 388 kts | 203° |
| 2026-04-25 02:48 | 1.60192 | 9.67508 | 18406 ft | 388 kts | 203° |
| 2026-04-25 02:48 | 1.57724 | 9.66407 | 17908 ft | 387 kts | 203° |
| 2026-04-25 02:48 | 1.55270 | 9.65311 | 17428 ft | 386 kts | 203° |
| 2026-04-25 02:49 | 1.52827 | 9.64221 | 16957 ft | 384 kts | 204° |
| 2026-04-25 02:49 | 1.50388 | 9.63133 | 16511 ft | 382 kts | 204° |
| 2026-04-25 02:49 | 1.47970 | 9.62053 | 16074 ft | 380 kts | 203° |
| 2026-04-25 02:49 | 1.45560 | 9.60978 | 15622 ft | 378 kts | 204° |
| 2026-04-25 02:50 | 1.43162 | 9.59908 | 15176 ft | 376 kts | 204° |
| 2026-04-25 02:50 | 1.40800 | 9.58854 | 14729 ft | 375 kts | 204° |
| 2026-04-25 02:50 | 1.38422 | 9.57793 | 14277 ft | 374 kts | 204° |
| 2026-04-25 02:50 | 1.36043 | 9.56731 | 13830 ft | 373 kts | 204° |
| 2026-04-25 02:51 | 1.33669 | 9.55671 | 13332 ft | 372 kts | 204° |
| 2026-04-25 02:51 | 1.31308 | 9.54618 | 12885 ft | 370 kts | 204° |
| 2026-04-25 02:51 | 1.28958 | 9.53569 | 12431 ft | 367 kts | 204° |
| 2026-04-25 02:51 | 1.26650 | 9.52540 | 12003 ft | 365 kts | 204° |
| 2026-04-25 02:52 | 1.24336 | 9.51507 | 11565 ft | 363 kts | 204° |
| 2026-04-25 02:52 | 1.22039 | 9.50482 | 11137 ft | 360 kts | 204° |
| 2026-04-25 02:52 | 1.19754 | 9.49463 | 10715 ft | 358 kts | 204° |
| 2026-04-25 02:52 | 1.17489 | 9.48452 | 10474 ft | 351 kts | 204° |
| 2026-04-25 02:53 | 1.15329 | 9.47489 | 10273 ft | 335 kts | 204° |
| 2026-04-25 02:53 | 1.14370 | 9.47061 | 10213 ft | 327 kts | 204° |
| 2026-04-25 02:53 | 1.13845 | 9.46827 | 10173 ft | 323 kts | 204° |
| 2026-04-25 02:53 | 1.11841 | 9.45933 | 10034 ft | 307 kts | 204° |
| 2026-04-25 02:54 | 1.09934 | 9.45082 | 9907 ft | 293 kts | 204° |
| 2026-04-25 02:54 | 1.08102 | 9.44265 | 9656 ft | 284 kts | 205° |
| 2026-04-25 02:54 | 1.06318 | 9.43469 | 9361 ft | 278 kts | 205° |
| 2026-04-25 02:54 | 1.04590 | 9.42698 | 9078 ft | 272 kts | 205° |
| 2026-04-25 02:55 | 1.02881 | 9.41935 | 8799 ft | 266 kts | 205° |
| 2026-04-25 02:55 | 1.01228 | 9.41198 | 8530 ft | 261 kts | 205° |
| 2026-04-25 02:55 | 0.99886 | 9.40598 | 8314 ft | 257 kts | 205° |
| 2026-04-25 02:55 | 0.98472 | 9.39967 | 8096 ft | 258 kts | 205° |
| 2026-04-25 02:56 | 0.96826 | 9.39233 | 7831 ft | 259 kts | 205° |
| 2026-04-25 02:56 | 0.95478 | 9.38631 | 7622 ft | 261 kts | 205° |
| 2026-04-25 02:56 | 0.93792 | 9.37879 | 7339 ft | 262 kts | 205° |
| 2026-04-25 02:56 | 0.92138 | 9.37141 | 7068 ft | 264 kts | 205° |
| 2026-04-25 02:57 | 0.90448 | 9.36386 | 6788 ft | 266 kts | 205° |
| 2026-04-25 02:57 | 0.88756 | 9.35631 | 6510 ft | 268 kts | 205° |
| 2026-04-25 02:57 | 0.87042 | 9.34866 | 6212 ft | 270 kts | 204° |
| 2026-04-25 02:57 | 0.85319 | 9.34098 | 5907 ft | 272 kts | 205° |
| 2026-04-25 02:58 | 0.83602 | 9.33332 | 5624 ft | 273 kts | 204° |
| 2026-04-25 02:58 | 0.81858 | 9.32556 | 5329 ft | 274 kts | 203° |
| 2026-04-25 02:58 | 0.80009 | 9.32137 | 5026 ft | 276 kts | 181° |
| 2026-04-25 02:58 | 0.78090 | 9.32150 | 4751 ft | 276 kts | 180° |
| 2026-04-25 02:59 | 0.76166 | 9.32164 | 4451 ft | 277 kts | 180° |
| 2026-04-25 02:59 | 0.74230 | 9.32174 | 4170 ft | 277 kts | 180° |
| 2026-04-25 02:59 | 0.72319 | 9.32180 | 4052 ft | 271 kts | 180° |
| 2026-04-25 02:59 | 0.70471 | 9.32183 | 3925 ft | 266 kts | 180° |
| 2026-04-25 03:00 | 0.68635 | 9.32185 | 3820 ft | 260 kts | 180° |
| 2026-04-25 03:00 | 0.66866 | 9.32187 | 3757 ft | 247 kts | 180° |
| 2026-04-25 03:00 | 0.65191 | 9.32197 | 3665 ft | 232 kts | 176° |
| 2026-04-25 03:00 | 0.63687 | 9.32591 | 3487 ft | 222 kts | 157° |
| 2026-04-25 03:01 | 0.62310 | 9.33224 | 3205 ft | 212 kts | 155° |
| 2026-04-25 03:01 | 0.61020 | 9.33847 | 2946 ft | 199 kts | 155° |
| 2026-04-25 03:01 | 0.59819 | 9.34432 | 2709 ft | 185 kts | 155° |
| 2026-04-25 03:01 | 0.58724 | 9.34967 | 2491 ft | 166 kts | 155° |
| 2026-04-25 03:02 | 0.57736 | 9.35447 | 2262 ft | 150 kts | 155° |
| 2026-04-25 03:02 | 0.56824 | 9.35892 | 2088 ft | 145 kts | 155° |
| 2026-04-25 03:02 | 0.55917 | 9.36332 | 1912 ft | 149 kts | 154° |
| 2026-04-25 03:02 | 0.54985 | 9.36786 | 1727 ft | 148 kts | 154° |
| 2026-04-25 03:03 | 0.54063 | 9.37235 | 1527 ft | 147 kts | 154° |
| 2026-04-25 03:03 | 0.53144 | 9.37682 | 1334 ft | 147 kts | 154° |
| 2026-04-25 03:03 | 0.52217 | 9.38134 | 1145 ft | 148 kts | 154° |
| 2026-04-25 03:03 | 0.51290 | 9.38585 | 958 ft | 147 kts | 154° |
| 2026-04-25 03:04 | 0.50363 | 9.39038 | 792 ft | 149 kts | 153° |
| 2026-04-25 03:04 | 0.49423 | 9.39471 | 561 ft | 149 kts | 153° |
| 2026-04-25 03:04 | 0.48503 | 9.39924 | 369 ft | 146 kts | 153° |
| 2026-04-25 03:05 | 0.46655 | 9.40845 | 62 ft | 148 kts | 154° |
| 2026-04-25 03:05 | 0.45788 | 9.41251 | 34 ft | 126 kts | 148° |
| 2026-04-25 03:05 | 0.45144 | 9.41580 | 37 ft | 82 kts | 155° |
| 2026-04-25 03:05 | 0.44811 | 9.41739 | 37 ft | 25 kts | 154° |
| 2026-04-25 03:06 | 0.44700 | 9.41793 | 35 ft | 8 kts | 154° |
| 2026-04-25 03:06 | 0.44649 | 9.41801 | 36 ft | 5 kts | 170° |
| 2026-04-25 03:06 | 0.44639 | 9.41810 | 34 ft | 3 kts | 109° |
| 2026-04-25 03:06 | 0.44684 | 9.41822 | 36 ft | 14 kts | 328° |
| 2026-04-25 03:07 | 0.44797 | 9.41738 | 36 ft | 25 kts | 324° |
| 2026-04-25 03:07 | 0.44956 | 9.41651 | 35 ft | 18 kts | 346° |
| 2026-04-25 03:07 | 0.45078 | 9.41606 | 37 ft | 19 kts | 336° |
| 2026-04-25 03:07 | 0.45195 | 9.41551 | 38 ft | 18 kts | 334° |
| 2026-04-25 03:08 | 0.45300 | 9.41500 | 37 ft | 14 kts | 334° |
| 2026-04-25 03:08 | 0.45387 | 9.41458 | 36 ft | 14 kts | 328° |
| 2026-04-25 03:08 | 0.45402 | 9.41374 | 35 ft | 13 kts | 254° |
| 2026-04-25 03:08 | 0.45447 | 9.41306 | 36 ft | 13 kts | 332° |
| 2026-04-25 03:09 | 0.45524 | 9.41266 | 34 ft | 12 kts | 332° |
| 2026-04-25 03:09 | 0.45602 | 9.41230 | 36 ft | 12 kts | 334° |
| 2026-04-25 03:09 | 0.45676 | 9.41191 | 36 ft | 12 kts | 320° |
| 2026-04-25 03:09 | 0.45676 | 9.41145 | 36 ft | 3 kts | 233° |
| 2026-04-25 03:10 | 0.45668 | 9.41130 | 35 ft | 0 kts | 243° |